createdAt,value
2023-01-03T00:01:13.538Z,3.57
2023-01-03T00:03:40.276Z,4.00
2023-01-03T00:06:19.123Z,2.67
2023-01-03T00:08:46.025Z,4.37
2023-01-03T00:11:18.483Z,2.10
2023-01-03T00:13:45.779Z,2.50
2023-01-03T00:16:20.068Z,3.13
2023-01-03T00:18:47.044Z,3.30
2023-01-03T00:21:13.859Z,4.10
2023-01-03T00:23:40.666Z,2.07
2023-01-03T00:26:15.771Z,3.17
2023-01-03T00:28:43.303Z,5.73
2023-01-03T00:31:12.680Z,7.93
2023-01-03T00:33:40.585Z,2.63
2023-01-03T00:36:09.613Z,2.53
2023-01-03T00:38:37.327Z,2.13
2023-01-03T00:41:09.519Z,6.73
2023-01-03T00:43:37.222Z,5.13
2023-01-03T00:46:05.493Z,3.33
2023-01-03T00:48:32.717Z,1.60
2023-01-03T00:51:06.906Z,1.80
2023-01-03T00:53:34.060Z,6.80
2023-01-03T00:56:06.701Z,4.67
2023-01-03T00:58:34.256Z,4.20
2023-01-03T01:01:08.228Z,2.57
2023-01-03T01:03:36.784Z,5.20
2023-01-03T01:06:21.457Z,4.80
2023-01-03T01:08:50.073Z,2.50
2023-01-03T01:11:17.664Z,3.40
2023-01-03T01:13:45.867Z,4.40
2023-01-03T01:16:15.556Z,3.43
2023-01-03T01:18:44.288Z,8.17
2023-01-03T01:21:15.146Z,3.47
2023-01-03T01:23:42.852Z,4.97
2023-01-03T01:26:12.851Z,4.67
2023-01-03T01:28:39.908Z,4.73
2023-01-03T01:31:07.740Z,6.30
2023-01-03T01:33:35.746Z,2.70
2023-01-03T01:36:10.430Z,5.43
2023-01-03T01:38:37.167Z,1.67
2023-01-03T01:41:04.100Z,3.90
2023-01-03T01:43:49.623Z,2.70
2023-01-03T01:46:25.873Z,3.10
2023-01-03T01:48:57.588Z,1.80
2023-01-03T01:51:29.532Z,1.50
2023-01-03T01:53:57.730Z,2.50
2023-01-03T01:56:31.501Z,2.20
2023-01-03T01:58:58.285Z,1.83
2023-01-03T02:01:25.396Z,1.40
2023-01-03T02:04:17.561Z,1.33
2023-01-03T02:06:44.517Z,1.10
2023-01-03T02:09:11.245Z,1.27
2023-01-03T02:11:43.748Z,1.70
2023-01-03T02:14:32.260Z,1.30
2023-01-03T02:17:17.851Z,1.53
2023-01-03T02:20:02.519Z,3.50
2023-01-03T02:22:38.162Z,1.10
2023-01-03T02:25:34.259Z,2.10
2023-01-03T02:28:12.908Z,1.00
2023-01-03T02:30:50.488Z,2.07
2023-01-03T02:33:52.543Z,1.23
2023-01-03T02:36:47.078Z,1.87
2023-01-03T02:39:41.053Z,2.93
2023-01-03T02:42:42.103Z,1.07
2023-01-03T02:45:18.631Z,1.70
2023-01-03T02:47:55.961Z,2.00
2023-01-03T02:50:26.525Z,1.27
2023-01-03T02:52:58.305Z,1.33
2023-01-03T02:55:29.260Z,2.80
2023-01-03T02:58:04.689Z,1.10
2023-01-03T03:00:34.111Z,1.30
2023-01-03T03:03:06.782Z,1.87
2023-01-03T03:05:42.576Z,0.83
2023-01-03T03:08:09.286Z,0.90
2023-01-03T03:10:58.301Z,0.70
2023-01-03T03:13:38.708Z,0.83
2023-01-03T03:16:40.348Z,1.00
2023-01-03T03:19:48.078Z,0.83
2023-01-03T03:22:45.674Z,0.73
2023-01-03T03:25:18.770Z,1.00
2023-01-03T03:28:06.747Z,1.70
2023-01-03T03:30:38.211Z,0.80
2023-01-03T03:33:06.821Z,0.93
2023-01-03T03:35:44.903Z,1.40
2023-01-03T03:38:15.072Z,1.20
2023-01-03T03:41:11.565Z,0.97
2023-01-03T03:44:04.672Z,6.87
2023-01-03T03:46:39.002Z,0.77
2023-01-03T03:49:26.894Z,0.77
2023-01-03T03:51:57.260Z,0.50
2023-01-03T03:54:25.949Z,0.83
2023-01-03T03:57:00.178Z,0.70
2023-01-03T03:59:28.265Z,1.07
2023-01-03T04:01:58.891Z,0.70
2023-01-03T04:04:31.344Z,2.70
2023-01-03T04:06:58.292Z,0.70
2023-01-03T04:09:25.010Z,0.70
2023-01-03T04:11:51.656Z,0.73
2023-01-03T04:14:18.328Z,0.80
2023-01-03T04:16:45.132Z,1.20
2023-01-03T04:19:11.832Z,2.30
2023-01-03T04:21:38.722Z,0.80
2023-01-03T04:24:05.786Z,1.67
2023-01-03T04:26:32.529Z,2.53
2023-01-03T04:28:59.230Z,1.37
2023-01-03T04:31:26.006Z,1.40
2023-01-03T04:33:54.028Z,1.30
2023-01-03T04:36:21.377Z,1.00
2023-01-03T04:38:48.569Z,1.47
2023-01-03T04:41:15.797Z,1.13
2023-01-03T04:44:01.087Z,0.83
2023-01-03T04:46:36.302Z,0.80
2023-01-03T04:49:05.124Z,0.80
2023-01-03T04:51:32.428Z,1.20
2023-01-03T04:53:59.524Z,0.87
2023-01-03T04:56:31.455Z,1.17
2023-01-03T04:58:58.599Z,2.27
2023-01-03T05:01:26.081Z,0.80
2023-01-03T05:03:59.014Z,0.70
2023-01-03T05:06:26.836Z,2.70
2023-01-03T05:08:53.734Z,1.00
2023-01-03T05:11:20.764Z,1.83
2023-01-03T05:13:47.471Z,0.83
2023-01-03T05:16:15.478Z,1.40
2023-01-03T05:18:42.528Z,1.37
2023-01-03T05:21:37.538Z,2.87
2023-01-03T05:24:23.833Z,1.23
2023-01-03T05:26:51.134Z,1.43
2023-01-03T05:29:20.336Z,2.17
2023-01-03T05:31:47.313Z,3.20
2023-01-03T05:34:14.352Z,1.20
2023-01-03T05:36:41.195Z,0.97
2023-01-03T05:39:08.112Z,2.30
2023-01-03T05:41:53.250Z,0.97
2023-01-03T05:44:20.672Z,1.00
2023-01-03T05:46:47.352Z,1.60
2023-01-03T05:49:14.196Z,1.50
2023-01-03T05:51:41.175Z,6.00
2023-01-03T05:54:07.917Z,1.43
2023-01-03T05:56:34.638Z,1.30
2023-01-03T05:59:01.400Z,2.20
2023-01-03T06:01:28.772Z,1.30
2023-01-03T06:03:55.925Z,1.30
2023-01-03T06:06:22.880Z,3.30
2023-01-03T06:08:49.688Z,2.83
2023-01-03T06:11:17.254Z,2.90
2023-01-03T06:13:44.656Z,1.53
2023-01-03T06:16:35.534Z,3.20
2023-01-03T06:19:03.619Z,7.83
2023-01-03T06:21:30.293Z,1.17
2023-01-03T06:23:57.000Z,2.60
2023-01-03T06:26:24.573Z,2.07
2023-01-03T06:28:51.843Z,1.60
2023-01-03T06:31:19.588Z,1.37
2023-01-03T06:33:46.603Z,1.20
2023-01-03T06:36:16.981Z,1.10
2023-01-03T06:38:44.322Z,1.17
2023-01-03T06:41:11.884Z,2.90
2023-01-03T06:43:38.779Z,1.80
2023-01-03T06:46:24.280Z,1.90
2023-01-03T06:49:09.658Z,2.10
2023-01-03T06:51:55.322Z,2.30
2023-01-03T06:54:24.957Z,4.80
2023-01-03T06:56:52.456Z,4.53
2023-01-03T06:59:19.963Z,3.83
2023-01-03T07:01:48.193Z,3.33
2023-01-03T07:04:15.247Z,3.43
2023-01-03T07:06:42.568Z,3.10
2023-01-03T07:09:10.518Z,4.43
2023-01-03T07:11:37.931Z,2.00
2023-01-03T07:14:06.129Z,3.50
2023-01-03T07:16:39.624Z,4.00
2023-01-03T07:19:08.135Z,3.87
2023-01-03T07:21:35.599Z,4.40
2023-01-03T07:24:04.757Z,3.20
2023-01-03T07:26:34.180Z,3.90
2023-01-03T07:29:04.173Z,14.87
2023-01-03T07:31:32.606Z,11.80
2023-01-03T07:34:00.600Z,11.53
2023-01-03T07:36:27.625Z,9.00
2023-01-03T07:38:55.727Z,3.90
2023-01-03T07:41:22.739Z,10.03
2023-01-03T07:43:49.781Z,10.57
2023-01-03T07:46:19.084Z,4.77
2023-01-03T07:48:55.290Z,2.17
2023-01-03T07:51:22.720Z,3.03
2023-01-03T07:53:53.307Z,2.40
2023-01-03T07:56:21.852Z,2.10
2023-01-03T07:58:51.827Z,2.20
2023-01-03T08:01:22.105Z,2.60
2023-01-03T08:03:50.143Z,3.70
2023-01-03T08:06:19.496Z,2.37
2023-01-03T08:09:06.690Z,4.17
2023-01-03T08:11:52.173Z,5.50
2023-01-03T08:14:23.590Z,6.60
2023-01-03T08:16:52.608Z,7.27
2023-01-03T08:19:19.267Z,5.97
2023-01-03T08:21:45.959Z,5.90
2023-01-03T08:24:12.659Z,6.87
2023-01-03T08:26:39.483Z,5.47
2023-01-03T08:29:06.825Z,9.30
2023-01-03T08:31:37.865Z,5.70
2023-01-03T08:34:12.035Z,4.90
2023-01-03T08:36:50.631Z,6.37
2023-01-03T08:39:22.396Z,6.60
2023-01-03T08:42:01.783Z,7.60
2023-01-03T08:44:28.462Z,5.20
2023-01-03T08:46:57.386Z,4.03
2023-01-03T08:49:25.586Z,5.20
2023-01-03T08:51:52.249Z,2.47
2023-01-03T08:54:18.902Z,3.67
2023-01-03T08:56:45.617Z,2.43
2023-01-03T08:59:12.333Z,2.83
2023-01-03T09:01:40.337Z,7.10
2023-01-03T09:04:07.294Z,5.13
2023-01-03T09:06:34.196Z,5.97
2023-01-03T09:09:05.627Z,5.20
2023-01-03T09:11:32.354Z,4.30
2023-01-03T09:13:59.245Z,3.40
2023-01-03T09:16:26.101Z,3.83
2023-01-03T09:18:52.878Z,3.63
2023-01-03T09:21:19.585Z,2.67
2023-01-03T09:23:46.248Z,2.97
2023-01-03T09:26:13.058Z,3.67
2023-01-03T09:28:39.716Z,3.73
2023-01-03T09:31:06.451Z,6.63
2023-01-03T09:33:33.210Z,7.07
2023-01-03T09:35:59.873Z,13.73
2023-01-03T09:38:26.532Z,13.83
2023-01-03T09:40:58.352Z,11.30
2023-01-03T09:43:27.364Z,12.10
2023-01-03T09:45:56.672Z,9.87
2023-01-03T09:48:37.928Z,10.43
2023-01-03T09:51:30.071Z,8.23
2023-01-03T09:54:16.341Z,8.40
2023-01-03T09:57:01.886Z,4.43
2023-01-03T09:59:54.806Z,4.27
2023-01-03T10:03:01.995Z,3.80
2023-01-03T10:06:00.006Z,4.30
2023-01-03T10:08:52.007Z,12.67
2023-01-03T10:11:49.707Z,8.50
2023-01-03T10:14:37.894Z,8.77
2023-01-03T10:17:13.924Z,4.70
2023-01-03T10:20:09.600Z,6.67
2023-01-03T10:22:38.060Z,4.50
2023-01-03T10:25:04.739Z,3.00
2023-01-03T10:27:35.363Z,2.80
2023-01-03T10:30:05.671Z,2.17
2023-01-03T10:33:13.127Z,3.10
2023-01-03T10:35:39.793Z,5.03
2023-01-03T10:38:06.492Z,4.67
2023-01-03T10:40:44.389Z,3.70
2023-01-03T10:43:39.000Z,2.93
2023-01-03T10:46:17.872Z,2.57
2023-01-03T10:51:58.088Z,2.73
2023-01-03T10:54:35.943Z,3.30
2023-01-03T10:57:05.151Z,3.07
2023-01-03T10:59:32.539Z,2.90
2023-01-03T11:02:15.176Z,2.90
2023-01-03T11:04:43.244Z,3.37
2023-01-03T11:07:12.074Z,2.70
2023-01-03T11:09:48.732Z,2.00
2023-01-03T11:12:37.146Z,3.00
2023-01-03T11:15:24.180Z,2.90
2023-01-03T11:17:57.065Z,3.13
2023-01-03T11:20:41.103Z,3.30
2023-01-03T11:23:40.958Z,2.70
2023-01-03T11:26:19.972Z,3.37
2023-01-03T11:28:52.821Z,2.37
2023-01-03T11:31:35.145Z,3.20
2023-01-03T11:34:01.863Z,2.90
2023-01-03T11:36:48.703Z,3.67
2023-01-03T11:39:27.395Z,3.63
2023-01-03T11:42:18.148Z,4.10
2023-01-03T11:45:08.610Z,4.43
2023-01-03T11:47:59.014Z,3.13
2023-01-03T11:50:59.588Z,4.80
2023-01-03T11:53:36.589Z,3.33
2023-01-03T11:56:14.808Z,3.00
2023-01-03T11:59:13.941Z,3.73
2023-01-03T12:02:05.831Z,3.53
2023-01-03T12:05:01.603Z,3.50
2023-01-03T12:07:54.092Z,3.80
2023-01-03T12:10:48.437Z,3.30
2023-01-03T12:13:36.745Z,3.20
2023-01-03T12:16:25.265Z,3.10
2023-01-03T12:18:58.964Z,3.40
2023-01-03T12:21:35.699Z,4.70
2023-01-03T12:24:29.261Z,4.60
2023-01-03T12:27:03.505Z,3.13
2023-01-03T12:29:43.520Z,3.80
2023-01-03T12:32:22.208Z,3.20
2023-01-03T12:35:13.766Z,3.07
2023-01-03T12:37:41.530Z,3.30
2023-01-03T12:40:43.123Z,3.03
2023-01-03T12:43:46.828Z,3.10
2023-01-03T12:46:20.373Z,2.80
2023-01-03T12:49:18.944Z,4.07
2023-01-03T12:51:45.679Z,2.70
2023-01-03T12:54:20.525Z,2.20
2023-01-03T12:57:13.332Z,2.37
2023-01-03T12:59:59.892Z,4.00
2023-01-03T13:02:54.148Z,3.10
2023-01-03T13:05:47.540Z,3.10
2023-01-03T13:08:30.056Z,2.50
2023-01-03T13:11:02.440Z,1.70
2023-01-03T13:13:29.815Z,2.60
2023-01-03T13:15:56.669Z,2.23
2023-01-03T13:18:23.481Z,2.50
2023-01-03T13:20:52.101Z,2.00
2023-01-03T13:23:21.641Z,1.80
2023-01-03T13:26:04.885Z,2.33
2023-01-03T13:28:39.775Z,2.30
2023-01-03T13:31:18.704Z,1.90
2023-01-03T13:33:48.643Z,2.67
2023-01-03T13:36:18.217Z,2.80
2023-01-03T13:38:45.034Z,1.93
2023-01-03T13:41:36.005Z,2.53
2023-01-03T13:44:23.783Z,2.07
2023-01-03T13:46:51.652Z,6.70
2023-01-03T13:49:21.196Z,2.77
2023-01-03T13:51:49.149Z,3.03
2023-01-03T13:54:15.817Z,3.10
2023-01-03T13:56:45.339Z,2.70
2023-01-03T13:59:15.049Z,2.13
2023-01-03T14:02:07.967Z,2.00
2023-01-03T14:05:15.132Z,3.27
2023-01-03T14:08:22.816Z,3.90
2023-01-03T14:11:21.814Z,2.60
2023-01-03T14:13:49.858Z,3.83
2023-01-03T14:16:41.920Z,2.20
2023-01-03T14:19:30.177Z,3.13
2023-01-03T14:22:26.692Z,2.20
2023-01-03T14:24:57.434Z,5.30
2023-01-03T14:27:30.964Z,2.53
2023-01-03T14:29:57.840Z,3.60
2023-01-03T14:32:33.689Z,3.20
2023-01-03T14:35:01.636Z,2.50
2023-01-03T14:37:28.551Z,2.50
2023-01-03T14:40:00.406Z,5.60
2023-01-03T14:42:27.735Z,2.10
2023-01-03T14:44:59.897Z,2.30
2023-01-03T14:47:39.014Z,2.77
2023-01-03T14:50:07.440Z,2.67
2023-01-03T14:52:42.792Z,3.03
2023-01-03T14:55:18.737Z,3.23
2023-01-03T14:57:47.310Z,5.50
2023-01-03T15:00:22.304Z,2.43
2023-01-03T15:02:53.948Z,2.30
2023-01-03T15:05:34.049Z,2.23
2023-01-03T15:08:12.830Z,2.37
2023-01-03T15:11:05.786Z,3.50
2023-01-03T15:13:47.446Z,4.27
2023-01-03T15:16:37.105Z,5.63
2023-01-03T15:19:13.678Z,4.63
2023-01-03T15:21:41.197Z,5.63
2023-01-03T15:24:20.323Z,4.93
2023-01-03T15:26:52.464Z,4.00
2023-01-03T15:29:23.782Z,5.60
2023-01-03T15:32:00.776Z,3.57
2023-01-03T15:34:30.321Z,4.67
2023-01-03T15:37:01.659Z,3.53
2023-01-03T15:39:44.184Z,3.40
2023-01-03T15:42:44.478Z,3.70
2023-01-03T15:45:19.398Z,3.00
2023-01-03T15:47:47.617Z,3.20
2023-01-03T15:50:16.203Z,2.93
2023-01-03T15:52:42.899Z,4.20
2023-01-03T15:55:13.052Z,2.13
2023-01-03T15:57:40.227Z,3.77
2023-01-03T16:00:10.571Z,2.60
2023-01-03T16:02:37.340Z,3.90
2023-01-03T16:05:04.368Z,5.37
2023-01-03T16:07:31.949Z,6.37
2023-01-03T16:09:58.582Z,8.27
2023-01-03T16:12:35.497Z,7.20
2023-01-03T16:15:04.646Z,4.73
2023-01-03T16:17:32.216Z,4.17
2023-01-03T16:20:00.352Z,3.57
2023-01-03T16:22:36.871Z,5.50
2023-01-03T16:25:05.501Z,5.70
2023-01-03T16:27:32.666Z,7.93
2023-01-03T16:29:59.477Z,5.40
2023-01-03T16:32:30.713Z,5.00
2023-01-03T16:35:00.623Z,6.13
2023-01-03T16:37:27.653Z,7.53
2023-01-03T16:39:54.537Z,4.90
2023-01-03T16:42:27.525Z,4.43
2023-01-03T16:44:54.873Z,3.37
2023-01-03T16:47:25.576Z,3.77
2023-01-03T16:49:58.636Z,5.13
2023-01-03T16:52:27.955Z,3.50
2023-01-03T16:54:54.992Z,3.10
2023-01-03T16:57:22.783Z,3.50
2023-01-03T16:59:49.908Z,3.50
2023-01-03T17:02:16.841Z,3.50
2023-01-03T17:04:44.708Z,3.00
2023-01-03T17:07:19.192Z,3.10
2023-01-03T17:09:47.693Z,2.83
2023-01-03T17:12:17.354Z,2.47
2023-01-03T17:14:44.096Z,4.13
2023-01-03T17:17:19.652Z,3.53
2023-01-03T17:20:04.767Z,3.60
2023-01-03T17:22:32.558Z,3.00
2023-01-03T17:24:59.303Z,2.67
2023-01-03T17:27:31.747Z,3.43
2023-01-03T17:30:01.965Z,5.37
2023-01-03T17:32:28.786Z,5.23
2023-01-03T17:34:55.457Z,3.63
2023-01-03T17:37:23.202Z,3.50
2023-01-03T17:39:56.257Z,5.03
2023-01-03T17:42:24.029Z,3.97
2023-01-03T17:45:09.942Z,4.37
2023-01-03T17:48:00.464Z,4.73
2023-01-03T17:50:29.324Z,4.60
2023-01-03T17:52:56.709Z,3.83
2023-01-03T17:55:30.719Z,5.20
2023-01-03T17:58:01.400Z,4.73
2023-01-03T18:00:29.073Z,7.50
2023-01-03T18:02:56.876Z,11.50
2023-01-03T18:05:28.446Z,9.73
2023-01-03T18:08:01.740Z,14.33
2023-01-03T18:10:31.408Z,12.70
2023-01-03T18:12:58.727Z,12.70
2023-01-03T18:15:25.473Z,9.13
2023-01-03T18:17:52.937Z,10.83
2023-01-03T18:20:19.996Z,7.40
2023-01-03T18:22:47.295Z,7.47
2023-01-03T18:25:25.907Z,7.33
2023-01-03T18:27:59.874Z,7.23
2023-01-03T18:30:26.783Z,6.63
2023-01-03T18:32:53.528Z,5.93
2023-01-03T18:35:28.435Z,4.80
2023-01-03T18:37:59.418Z,5.03
2023-01-03T18:40:29.521Z,5.37
2023-01-03T18:43:10.583Z,4.43
2023-01-03T18:45:38.884Z,4.10
2023-01-03T18:48:06.455Z,5.93
2023-01-03T18:50:33.724Z,4.77
2023-01-03T18:53:04.124Z,4.60
2023-01-03T18:55:33.778Z,5.17
2023-01-03T18:58:14.212Z,4.93
2023-01-03T19:00:41.986Z,5.63
2023-01-03T19:03:22.456Z,7.10
2023-01-03T19:05:50.254Z,11.37
2023-01-03T19:08:19.548Z,7.67
2023-01-03T19:10:46.542Z,7.50
2023-01-03T19:13:28.450Z,5.83
2023-01-03T19:15:55.430Z,6.53
2023-01-03T19:18:22.527Z,8.03
2023-01-03T19:20:50.066Z,7.90
2023-01-03T19:23:23.789Z,11.40
2023-01-03T19:25:50.796Z,9.30
2023-01-03T19:28:23.075Z,9.47
2023-01-03T19:30:50.141Z,7.50
2023-01-03T19:33:19.323Z,6.83
2023-01-03T19:35:46.744Z,6.03
2023-01-03T19:38:13.507Z,4.90
2023-01-03T19:40:43.159Z,8.40
2023-01-03T19:43:21.312Z,6.17
2023-01-03T19:45:48.859Z,6.17
2023-01-03T19:48:21.236Z,6.80
2023-01-03T19:50:48.692Z,5.67
2023-01-03T19:53:16.210Z,7.20
2023-01-03T19:55:48.407Z,6.17
2023-01-03T19:58:21.652Z,5.70
2023-01-03T20:00:49.666Z,6.07
2023-01-03T20:03:22.685Z,5.07
2023-01-03T20:05:49.527Z,7.20
2023-01-03T20:08:16.187Z,5.60
2023-01-03T20:10:44.158Z,5.80
2023-01-03T20:13:20.298Z,6.00
2023-01-03T20:15:48.816Z,5.90
2023-01-03T20:18:32.110Z,6.60
2023-01-03T20:21:03.866Z,6.60
2023-01-03T20:23:34.651Z,5.33
2023-01-03T20:26:01.627Z,5.90
2023-01-03T20:28:31.320Z,5.80
2023-01-03T20:31:00.179Z,5.87
2023-01-03T20:33:28.047Z,6.27
2023-01-03T20:36:20.121Z,6.07
2023-01-03T20:38:53.052Z,6.23
2023-01-03T20:41:20.649Z,7.07
2023-01-03T20:43:48.868Z,6.87
2023-01-03T20:46:21.693Z,7.47
2023-01-03T20:48:57.113Z,6.93
2023-01-03T20:51:24.542Z,6.27
2023-01-03T20:53:54.789Z,6.80
2023-01-03T20:56:22.103Z,5.75
2023-01-03T20:58:48.850Z,6.37
2023-01-03T21:01:15.616Z,7.70
2023-01-03T21:03:42.545Z,5.43
2023-01-03T21:06:29.399Z,8.30
2023-01-03T21:08:57.530Z,8.70
2023-01-03T21:11:26.211Z,5.53
2023-01-03T21:13:54.216Z,5.80
2023-01-03T21:16:29.546Z,6.95
2023-01-03T21:19:00.450Z,5.70
2023-01-03T21:21:29.617Z,5.50
2023-01-03T21:23:56.279Z,5.85
2023-01-03T21:26:23.107Z,6.20
2023-01-03T21:28:49.770Z,5.30
2023-01-03T21:31:19.472Z,5.40
2023-01-03T21:33:47.080Z,6.23
2023-01-03T21:36:24.899Z,5.37
2023-01-03T21:38:51.886Z,5.70
2023-01-03T21:41:21.444Z,5.93
2023-01-03T21:43:48.224Z,7.20
2023-01-03T21:46:18.061Z,8.03
2023-01-03T21:48:45.047Z,6.07
2023-01-03T21:51:13.779Z,6.37
2023-01-03T21:53:41.005Z,6.23
2023-01-03T21:56:20.301Z,6.50
2023-01-03T21:58:47.313Z,5.60
2023-01-03T22:01:22.870Z,6.30
2023-01-03T22:04:09.806Z,8.40
2023-01-03T22:06:37.324Z,6.77
2023-01-03T22:09:05.210Z,7.00
2023-01-03T22:11:32.449Z,8.80
2023-01-03T22:14:00.286Z,8.53
2023-01-03T22:16:27.027Z,7.40
2023-01-03T22:18:53.791Z,7.53
2023-01-03T22:21:21.269Z,7.50
2023-01-03T22:23:47.972Z,8.00
2023-01-03T22:26:16.219Z,7.17
2023-01-03T22:28:45.033Z,7.17
2023-01-03T22:31:21.280Z,7.37
2023-01-03T22:33:48.864Z,6.78
2023-01-03T22:36:16.524Z,6.10
2023-01-03T22:38:44.105Z,7.13
2023-01-03T22:41:16.089Z,8.32
2023-01-03T22:43:43.861Z,6.90
2023-01-03T22:46:13.743Z,7.30
2023-01-03T22:48:41.063Z,7.37
2023-01-03T22:51:11.246Z,7.00
2023-01-03T22:53:39.570Z,7.80
2023-01-03T22:56:12.824Z,7.23
2023-01-03T22:58:39.502Z,7.47
2023-01-03T23:01:08.211Z,8.60
2023-01-03T23:03:35.189Z,7.22
2023-01-03T23:06:10.544Z,8.20
2023-01-03T23:08:37.636Z,7.10
2023-01-03T23:11:33.430Z,9.55
2023-01-03T23:14:04.240Z,9.32
2023-01-03T23:16:32.166Z,9.55
2023-01-03T23:19:01.940Z,8.88
2023-01-03T23:21:29.120Z,9.77
2023-01-03T23:23:55.989Z,9.90
2023-01-03T23:26:23.093Z,9.90
2023-01-03T23:28:50.050Z,9.32
2023-01-03T23:31:16.779Z,9.02
2023-01-03T23:33:43.566Z,9.88
2023-01-03T23:36:13.152Z,10.10
2023-01-03T23:38:39.884Z,8.73
2023-01-03T23:41:09.270Z,10.32
2023-01-03T23:43:36.609Z,10.00
2023-01-03T23:46:04.113Z,9.30
2023-01-03T23:48:31.124Z,8.93
2023-01-03T23:51:05.861Z,9.88
2023-01-03T23:53:36.037Z,8.50
2023-01-03T23:56:07.994Z,10.10
2023-01-03T23:58:35.215Z,9.95
